sensor_id;sensor_type;location;lat;lon;timestamp;temperature;humidity
61004;DHT22;46889;37.310;13.582;2024-03-23T00:52:27;12.20;99.90
61004;DHT22;46889;37.310;13.582;2024-03-23T00:54:53;12.10;99.90
61004;DHT22;46889;37.310;13.582;2024-03-23T00:57:19;12.00;99.90
61004;DHT22;46889;37.310;13.582;2024-03-23T00:59:47;11.90;99.90
61004;DHT22;46889;37.310;13.582;2024-03-23T01:02:13;11.90;99.90
61004;DHT22;46889;37.310;13.582;2024-03-23T01:04:41;11.90;99.90
61004;DHT22;46889;37.310;13.582;2024-03-23T01:07:07;11.90;99.90
61004;DHT22;46889;37.310;13.582;2024-03-23T01:09:33;11.90;99.90
61004;DHT22;46889;37.310;13.582;2024-03-23T01:11:59;12.00;99.90
61004;DHT22;46889;37.310;13.582;2024-03-23T01:14:26;12.00;99.90
61004;DHT22;46889;37.310;13.582;2024-03-23T01:16:52;12.00;99.90
61004;DHT22;46889;37.310;13.582;2024-03-23T01:19:18;12.00;99.90
61004;DHT22;46889;37.310;13.582;2024-03-23T01:21:44;12.00;99.90
61004;DHT22;46889;37.310;13.582;2024-03-23T01:24:10;12.00;99.90
61004;DHT22;46889;37.310;13.582;2024-03-23T01:26:36;11.90;99.90
61004;DHT22;46889;37.310;13.582;2024-03-23T01:29:02;11.90;99.90
61004;DHT22;46889;37.310;13.582;2024-03-23T01:31:29;11.90;99.90
61004;DHT22;46889;37.310;13.582;2024-03-23T01:33:55;11.90;99.90
61004;DHT22;46889;37.310;13.582;2024-03-23T01:36:22;11.90;99.90
61004;DHT22;46889;37.310;13.582;2024-03-23T01:38:50;11.90;99.90
61004;DHT22;46889;37.310;13.582;2024-03-23T01:41:20;11.90;99.90
61004;DHT22;46889;37.310;13.582;2024-03-23T01:43:52;11.90;99.90
61004;DHT22;46889;37.310;13.582;2024-03-23T01:46:21;11.90;99.90
61004;DHT22;46889;37.310;13.582;2024-03-23T01:48:48;11.90;99.90
61004;DHT22;46889;37.310;13.582;2024-03-23T01:51:15;11.80;99.90
61004;DHT22;46889;37.310;13.582;2024-03-23T01:53:43;11.80;99.90
61004;DHT22;46889;37.310;13.582;2024-03-23T01:56:09;11.80;99.90
61004;DHT22;46889;37.310;13.582;2024-03-23T01:58:35;11.80;99.90
61004;DHT22;46889;37.310;13.582;2024-03-23T02:01:02;11.80;99.90
61004;DHT22;46889;37.310;13.582;2024-03-23T02:03:29;11.70;99.90
61004;DHT22;46889;37.310;13.582;2024-03-23T02:05:56;11.80;99.90
61004;DHT22;46889;37.310;13.582;2024-03-23T02:08:24;11.80;99.90
61004;DHT22;46889;37.310;13.582;2024-03-23T02:10:52;11.80;99.90
61004;DHT22;46889;37.310;13.582;2024-03-23T02:13:21;11.80;99.90
61004;DHT22;46889;37.310;13.582;2024-03-23T02:15:47;11.80;99.90
61004;DHT22;46889;37.310;13.582;2024-03-23T02:18:13;11.80;99.90
61004;DHT22;46889;37.310;13.582;2024-03-23T02:20:39;11.70;99.90
61004;DHT22;46889;37.310;13.582;2024-03-23T02:23:16;11.80;99.90
61004;DHT22;46889;37.310;13.582;2024-03-23T02:25:44;11.80;99.90
61004;DHT22;46889;37.310;13.582;2024-03-23T02:28:10;11.80;99.90
61004;DHT22;46889;37.310;13.582;2024-03-23T02:30:37;11.80;99.90
61004;DHT22;46889;37.310;13.582;2024-03-23T02:33:03;11.90;99.90
61004;DHT22;46889;37.310;13.582;2024-03-23T02:35:31;11.80;99.90
61004;DHT22;46889;37.310;13.582;2024-03-23T02:37:57;11.80;99.90
61004;DHT22;46889;37.310;13.582;2024-03-23T02:40:23;11.80;99.90
61004;DHT22;46889;37.310;13.582;2024-03-23T02:42:50;11.80;99.90
61004;DHT22;46889;37.310;13.582;2024-03-23T02:45:16;11.70;99.90
61004;DHT22;46889;37.310;13.582;2024-03-23T02:47:42;11.80;99.90
61004;DHT22;46889;37.310;13.582;2024-03-23T02:50:08;11.80;99.90
61004;DHT22;46889;37.310;13.582;2024-03-23T02:52:36;11.70;99.90
61004;DHT22;46889;37.310;13.582;2024-03-23T02:55:03;11.70;99.90
61004;DHT22;46889;37.310;13.582;2024-03-23T02:57:29;11.70;99.90
61004;DHT22;46889;37.310;13.582;2024-03-23T02:59:55;11.70;99.90
61004;DHT22;46889;37.310;13.582;2024-03-23T03:02:22;11.60;99.90
61004;DHT22;46889;37.310;13.582;2024-03-23T03:04:48;11.60;99.90
61004;DHT22;46889;37.310;13.582;2024-03-23T03:07:14;11.60;99.90
61004;DHT22;46889;37.310;13.582;2024-03-23T03:09:40;11.60;99.90
61004;DHT22;46889;37.310;13.582;2024-03-23T03:12:06;11.60;99.90
61004;DHT22;46889;37.310;13.582;2024-03-23T03:14:33;11.50;99.90
61004;DHT22;46889;37.310;13.582;2024-03-23T03:17:00;11.50;99.90
61004;DHT22;46889;37.310;13.582;2024-03-23T03:19:26;11.50;99.90
61004;DHT22;46889;37.310;13.582;2024-03-23T03:21:53;11.50;99.90
61004;DHT22;46889;37.310;13.582;2024-03-23T03:24:19;11.40;99.90
61004;DHT22;46889;37.310;13.582;2024-03-23T03:26:45;11.40;99.90
61004;DHT22;46889;37.310;13.582;2024-03-23T03:29:11;11.40;99.90
61004;DHT22;46889;37.310;13.582;2024-03-23T03:31:38;11.40;99.90
61004;DHT22;46889;37.310;13.582;2024-03-23T03:34:04;11.40;99.90
61004;DHT22;46889;37.310;13.582;2024-03-23T03:36:31;11.40;99.90
61004;DHT22;46889;37.310;13.582;2024-03-23T03:38:57;11.40;99.90
61004;DHT22;46889;37.310;13.582;2024-03-23T03:41:27;11.40;99.90
61004;DHT22;46889;37.310;13.582;2024-03-23T03:43:54;11.40;99.90
61004;DHT22;46889;37.310;13.582;2024-03-23T03:46:22;11.40;99.90
61004;DHT22;46889;37.310;13.582;2024-03-23T03:48:48;11.30;99.90
61004;DHT22;46889;37.310;13.582;2024-03-23T03:51:15;11.30;99.90
61004;DHT22;46889;37.310;13.582;2024-03-23T03:53:41;11.20;99.90
61004;DHT22;46889;37.310;13.582;2024-03-23T03:56:07;11.20;99.90
61004;DHT22;46889;37.310;13.582;2024-03-23T03:58:33;11.20;99.90
61004;DHT22;46889;37.310;13.582;2024-03-23T04:00:59;11.20;99.90
61004;DHT22;46889;37.310;13.582;2024-03-23T04:03:25;11.10;99.90
61004;DHT22;46889;37.310;13.582;2024-03-23T04:05:54;11.20;99.90
61004;DHT22;46889;37.310;13.582;2024-03-23T04:08:21;11.10;99.90
61004;DHT22;46889;37.310;13.582;2024-03-23T04:10:48;11.20;99.90
61004;DHT22;46889;37.310;13.582;2024-03-23T04:13:15;11.10;99.90
61004;DHT22;46889;37.310;13.582;2024-03-23T04:15:42;11.10;99.90
61004;DHT22;46889;37.310;13.582;2024-03-23T04:18:08;11.10;99.90
61004;DHT22;46889;37.310;13.582;2024-03-23T04:20:34;11.10;99.90
61004;DHT22;46889;37.310;13.582;2024-03-23T04:23:01;11.10;99.90
61004;DHT22;46889;37.310;13.582;2024-03-23T04:25:27;11.20;99.90
61004;DHT22;46889;37.310;13.582;2024-03-23T04:27:53;11.20;99.90
61004;DHT22;46889;37.310;13.582;2024-03-23T04:30:19;11.20;99.90
61004;DHT22;46889;37.310;13.582;2024-03-23T04:32:47;11.20;99.90
61004;DHT22;46889;37.310;13.582;2024-03-23T04:35:13;11.20;99.90
61004;DHT22;46889;37.310;13.582;2024-03-23T04:37:39;11.20;99.90
61004;DHT22;46889;37.310;13.582;2024-03-23T04:40:08;11.20;99.90
61004;DHT22;46889;37.310;13.582;2024-03-23T04:42:35;11.20;99.90
61004;DHT22;46889;37.310;13.582;2024-03-23T04:45:01;11.20;99.90
61004;DHT22;46889;37.310;13.582;2024-03-23T04:47:29;11.20;99.90
61004;DHT22;46889;37.310;13.582;2024-03-23T04:49:59;11.20;99.90
61004;DHT22;46889;37.310;13.582;2024-03-23T04:52:31;11.10;99.90
61004;DHT22;46889;37.310;13.582;2024-03-23T04:55:02;11.10;99.90
61004;DHT22;46889;37.310;13.582;2024-03-23T04:57:31;11.10;99.90
61004;DHT22;46889;37.310;13.582;2024-03-23T04:59:57;11.10;99.90
61004;DHT22;46889;37.310;13.582;2024-03-23T05:02:26;11.00;99.90
61004;DHT22;46889;37.310;13.582;2024-03-23T05:04:53;11.00;99.90
61004;DHT22;46889;37.310;13.582;2024-03-23T05:07:22;11.00;99.90
61004;DHT22;46889;37.310;13.582;2024-03-23T05:09:48;11.10;99.90
61004;DHT22;46889;37.310;13.582;2024-03-23T05:12:14;11.10;99.90
61004;DHT22;46889;37.310;13.582;2024-03-23T05:14:40;11.00;99.90
61004;DHT22;46889;37.310;13.582;2024-03-23T05:17:06;11.00;99.90
61004;DHT22;46889;37.310;13.582;2024-03-23T05:19:34;11.00;99.90
61004;DHT22;46889;37.310;13.582;2024-03-23T05:22:03;10.90;99.90
61004;DHT22;46889;37.310;13.582;2024-03-23T05:24:29;10.90;99.90
61004;DHT22;46889;37.310;13.582;2024-03-23T05:26:55;10.90;99.90
61004;DHT22;46889;37.310;13.582;2024-03-23T05:29:24;11.00;99.90
61004;DHT22;46889;37.310;13.582;2024-03-23T05:31:51;10.90;99.90
61004;DHT22;46889;37.310;13.582;2024-03-23T05:34:18;10.90;99.90
61004;DHT22;46889;37.310;13.582;2024-03-23T05:36:45;11.00;99.90
61004;DHT22;46889;37.310;13.582;2024-03-23T05:39:11;11.00;99.90
61004;DHT22;46889;37.310;13.582;2024-03-23T05:41:37;11.10;99.90
61004;DHT22;46889;37.310;13.582;2024-03-23T05:44:03;11.10;99.90
61004;DHT22;46889;37.310;13.582;2024-03-23T05:46:29;11.10;99.90
61004;DHT22;46889;37.310;13.582;2024-03-23T05:49:01;11.20;99.90
61004;DHT22;46889;37.310;13.582;2024-03-23T05:51:28;11.20;99.90
61004;DHT22;46889;37.310;13.582;2024-03-23T05:53:55;11.30;99.90
61004;DHT22;46889;37.310;13.582;2024-03-23T05:56:23;11.80;99.90
61004;DHT22;46889;37.310;13.582;2024-03-23T05:58:50;12.60;99.90
61004;DHT22;46889;37.310;13.582;2024-03-23T06:01:16;13.60;99.90
61004;DHT22;46889;37.310;13.582;2024-03-23T06:03:43;14.40;99.90
61004;DHT22;46889;37.310;13.582;2024-03-23T06:06:10;15.40;99.90
61004;DHT22;46889;37.310;13.582;2024-03-23T06:08:38;16.10;99.90
61004;DHT22;46889;37.310;13.582;2024-03-23T06:11:04;16.40;99.90
61004;DHT22;46889;37.310;13.582;2024-03-23T06:13:34;16.70;99.90
61004;DHT22;46889;37.310;13.582;2024-03-23T06:16:01;17.20;99.90
61004;DHT22;46889;37.310;13.582;2024-03-23T06:18:29;17.50;99.90
61004;DHT22;46889;37.310;13.582;2024-03-23T06:20:55;18.10;99.90
61004;DHT22;46889;37.310;13.582;2024-03-23T06:23:21;18.90;99.90
61004;DHT22;46889;37.310;13.582;2024-03-23T06:25:48;19.60;99.90
61004;DHT22;46889;37.310;13.582;2024-03-23T06:28:14;20.20;99.90
61004;DHT22;46889;37.310;13.582;2024-03-23T06:30:40;20.70;99.90
61004;DHT22;46889;37.310;13.582;2024-03-23T06:33:06;21.20;99.90
61004;DHT22;46889;37.310;13.582;2024-03-23T06:35:32;21.10;99.90
61004;DHT22;46889;37.310;13.582;2024-03-23T06:37:58;21.40;99.90
61004;DHT22;46889;37.310;13.582;2024-03-23T06:40:25;21.40;99.90
61004;DHT22;46889;37.310;13.582;2024-03-23T06:42:53;21.60;99.90
61004;DHT22;46889;37.310;13.582;2024-03-23T06:56:20;22.40;99.90
61004;DHT22;46889;37.310;13.582;2024-03-23T06:58:57;22.70;99.90
61004;DHT22;46889;37.310;13.582;2024-03-23T07:01:23;23.00;99.90
61004;DHT22;46889;37.310;13.582;2024-03-23T07:03:49;22.90;99.90
61004;DHT22;46889;37.310;13.582;2024-03-23T07:06:17;23.20;99.90
61004;DHT22;46889;37.310;13.582;2024-03-23T07:08:43;22.70;99.90
61004;DHT22;46889;37.310;13.582;2024-03-23T07:11:09;22.60;99.90
61004;DHT22;46889;37.310;13.582;2024-03-23T07:13:36;22.60;99.90
61004;DHT22;46889;37.310;13.582;2024-03-23T07:16:02;23.30;99.90
61004;DHT22;46889;37.310;13.582;2024-03-23T07:18:28;23.20;99.90
61004;DHT22;46889;37.310;13.582;2024-03-23T07:20:57;22.80;99.90
61004;DHT22;46889;37.310;13.582;2024-03-23T07:23:24;22.00;99.90
61004;DHT22;46889;37.310;13.582;2024-03-23T07:26:02;21.50;99.90
61004;DHT22;46889;37.310;13.582;2024-03-23T07:28:28;21.10;99.90
61004;DHT22;46889;37.310;13.582;2024-03-23T07:31:09;20.40;99.90
61004;DHT22;46889;37.310;13.582;2024-03-23T07:33:41;20.40;99.90
61004;DHT22;46889;37.310;13.582;2024-03-23T07:36:12;20.00;99.90
61004;DHT22;46889;37.310;13.582;2024-03-23T07:38:42;19.30;99.90
61004;DHT22;46889;37.310;13.582;2024-03-23T07:41:11;19.50;99.90
61004;DHT22;46889;37.310;13.582;2024-03-23T07:43:39;19.50;99.90
61004;DHT22;46889;37.310;13.582;2024-03-23T07:46:09;19.10;99.90
61004;DHT22;46889;37.310;13.582;2024-03-23T07:48:38;19.10;99.90
61004;DHT22;46889;37.310;13.582;2024-03-23T07:51:15;19.10;99.90
61004;DHT22;46889;37.310;13.582;2024-03-23T07:53:43;19.30;99.90
61004;DHT22;46889;37.310;13.582;2024-03-23T07:56:10;19.30;99.90
61004;DHT22;46889;37.310;13.582;2024-03-23T07:58:37;19.50;99.90
61004;DHT22;46889;37.310;13.582;2024-03-23T08:01:06;19.80;99.90
61004;DHT22;46889;37.310;13.582;2024-03-23T08:03:38;20.00;99.90
61004;DHT22;46889;37.310;13.582;2024-03-23T08:06:33;19.90;99.90
61004;DHT22;46889;37.310;13.582;2024-03-23T08:08:59;19.40;99.90
61004;DHT22;46889;37.310;13.582;2024-03-23T08:11:28;18.80;99.90
61004;DHT22;46889;37.310;13.582;2024-03-23T08:13:54;18.80;99.90
61004;DHT22;46889;37.310;13.582;2024-03-23T08:16:21;19.30;99.90
61004;DHT22;46889;37.310;13.582;2024-03-23T08:18:47;19.60;99.90
61004;DHT22;46889;37.310;13.582;2024-03-23T08:21:14;19.90;99.90
61004;DHT22;46889;37.310;13.582;2024-03-23T08:23:42;20.00;99.90
61004;DHT22;46889;37.310;13.582;2024-03-23T08:26:10;19.90;99.90
61004;DHT22;46889;37.310;13.582;2024-03-23T08:28:36;20.10;99.90
61004;DHT22;46889;37.310;13.582;2024-03-23T08:31:12;20.50;99.90
61004;DHT22;46889;37.310;13.582;2024-03-23T08:33:39;20.90;99.90
61004;DHT22;46889;37.310;13.582;2024-03-23T08:36:06;21.30;99.90
61004;DHT22;46889;37.310;13.582;2024-03-23T08:38:38;21.40;99.90
61004;DHT22;46889;37.310;13.582;2024-03-23T08:41:08;21.60;99.90
61004;DHT22;46889;37.310;13.582;2024-03-23T08:43:39;21.80;99.90
61004;DHT22;46889;37.310;13.582;2024-03-23T08:46:10;21.90;99.90
61004;DHT22;46889;37.310;13.582;2024-03-23T08:48:44;21.90;99.90
61004;DHT22;46889;37.310;13.582;2024-03-23T08:51:14;21.70;99.90
61004;DHT22;46889;37.310;13.582;2024-03-23T08:53:41;21.80;99.90
61004;DHT22;46889;37.310;13.582;2024-03-23T08:56:08;21.90;99.90
61004;DHT22;46889;37.310;13.582;2024-03-23T08:58:36;22.10;99.90
61004;DHT22;46889;37.310;13.582;2024-03-23T09:01:41;22.30;99.90
61004;DHT22;46889;37.310;13.582;2024-03-23T09:04:14;22.30;99.90
61004;DHT22;46889;37.310;13.582;2024-03-23T09:06:42;22.30;99.90
61004;DHT22;46889;37.310;13.582;2024-03-23T09:09:29;22.40;99.90
61004;DHT22;46889;37.310;13.582;2024-03-23T09:11:55;22.20;99.90
61004;DHT22;46889;37.310;13.582;2024-03-23T09:14:22;22.20;99.90
61004;DHT22;46889;37.310;13.582;2024-03-23T09:16:51;22.20;99.90
61004;DHT22;46889;37.310;13.582;2024-03-23T09:19:20;22.10;99.90
61004;DHT22;46889;37.310;13.582;2024-03-23T09:21:46;22.00;99.90
61004;DHT22;46889;37.310;13.582;2024-03-23T09:24:12;22.00;99.90
61004;DHT22;46889;37.310;13.582;2024-03-23T09:26:38;22.00;99.90
61004;DHT22;46889;37.310;13.582;2024-03-23T09:29:04;21.90;99.90
61004;DHT22;46889;37.310;13.582;2024-03-23T09:31:50;21.80;99.90
61004;DHT22;46889;37.310;13.582;2024-03-23T09:34:16;21.60;99.90
61004;DHT22;46889;37.310;13.582;2024-03-23T09:36:44;21.50;99.90
61004;DHT22;46889;37.310;13.582;2024-03-23T09:39:12;21.50;99.90
61004;DHT22;46889;37.310;13.582;2024-03-23T09:41:39;21.40;99.90
61004;DHT22;46889;37.310;13.582;2024-03-23T09:44:05;21.20;99.90
61004;DHT22;46889;37.310;13.582;2024-03-23T09:46:32;20.90;99.90
61004;DHT22;46889;37.310;13.582;2024-03-23T09:49:01;20.80;99.90
61004;DHT22;46889;37.310;13.582;2024-03-23T09:51:27;20.60;99.90
61004;DHT22;46889;37.310;13.582;2024-03-23T09:53:53;20.60;99.90
61004;DHT22;46889;37.310;13.582;2024-03-23T09:56:19;20.70;99.90
61004;DHT22;46889;37.310;13.582;2024-03-23T09:58:46;20.70;99.90
61004;DHT22;46889;37.310;13.582;2024-03-23T10:01:12;20.80;99.90
61004;DHT22;46889;37.310;13.582;2024-03-23T10:03:45;20.80;99.90
61004;DHT22;46889;37.310;13.582;2024-03-23T10:06:11;20.80;99.90
61004;DHT22;46889;37.310;13.582;2024-03-23T10:08:38;20.80;99.90
61004;DHT22;46889;37.310;13.582;2024-03-23T10:11:16;21.00;99.90
61004;DHT22;46889;37.310;13.582;2024-03-23T10:13:44;21.10;99.90
61004;DHT22;46889;37.310;13.582;2024-03-23T10:16:24;21.20;99.90
61004;DHT22;46889;37.310;13.582;2024-03-23T10:18:50;21.30;99.90
61004;DHT22;46889;37.310;13.582;2024-03-23T10:21:17;21.20;99.90
61004;DHT22;46889;37.310;13.582;2024-03-23T10:23:43;21.30;99.90
61004;DHT22;46889;37.310;13.582;2024-03-23T10:26:24;21.40;99.90
61004;DHT22;46889;37.310;13.582;2024-03-23T10:28:57;21.50;99.90
61004;DHT22;46889;37.310;13.582;2024-03-23T10:31:31;21.60;99.90
61004;DHT22;46889;37.310;13.582;2024-03-23T10:33:57;21.80;99.90
61004;DHT22;46889;37.310;13.582;2024-03-23T10:36:26;21.90;99.90
61004;DHT22;46889;37.310;13.582;2024-03-23T10:38:55;21.80;99.90
61004;DHT22;46889;37.310;13.582;2024-03-23T10:41:21;21.70;99.90
61004;DHT22;46889;37.310;13.582;2024-03-23T10:43:53;21.80;99.90
61004;DHT22;46889;37.310;13.582;2024-03-23T10:46:22;22.00;99.90
61004;DHT22;46889;37.310;13.582;2024-03-23T10:48:49;21.80;99.90
61004;DHT22;46889;37.310;13.582;2024-03-23T10:51:15;21.80;99.90
61004;DHT22;46889;37.310;13.582;2024-03-23T10:53:42;21.70;99.90
61004;DHT22;46889;37.310;13.582;2024-03-23T10:56:11;21.70;99.90
61004;DHT22;46889;37.310;13.582;2024-03-23T10:58:45;21.70;99.90
61004;DHT22;46889;37.310;13.582;2024-03-23T11:01:13;21.50;99.90
61004;DHT22;46889;37.310;13.582;2024-03-23T11:03:44;21.50;99.90
61004;DHT22;46889;37.310;13.582;2024-03-23T11:06:10;21.40;99.90
61004;DHT22;46889;37.310;13.582;2024-03-23T11:08:40;21.50;99.90
61004;DHT22;46889;37.310;13.582;2024-03-23T11:13:42;21.40;99.90
61004;DHT22;46889;37.310;13.582;2024-03-23T11:16:29;21.40;99.90
61004;DHT22;46889;37.310;13.582;2024-03-23T11:22:02;21.30;99.90
61004;DHT22;46889;37.310;13.582;2024-03-23T11:24:29;21.40;99.90
61004;DHT22;46889;37.310;13.582;2024-03-23T11:26:55;21.50;99.90
61004;DHT22;46889;37.310;13.582;2024-03-23T11:29:22;21.40;99.90
61004;DHT22;46889;37.310;13.582;2024-03-23T11:31:50;21.30;99.90
61004;DHT22;46889;37.310;13.582;2024-03-23T11:34:21;21.00;99.90
61004;DHT22;46889;37.310;13.582;2024-03-23T11:36:48;20.80;99.90
61004;DHT22;46889;37.310;13.582;2024-03-23T11:39:19;20.80;99.90
61004;DHT22;46889;37.310;13.582;2024-03-23T11:44:18;21.10;99.90
61004;DHT22;46889;37.310;13.582;2024-03-23T11:46:48;21.20;99.90
61004;DHT22;46889;37.310;13.582;2024-03-23T11:49:33;21.20;99.90
61004;DHT22;46889;37.310;13.582;2024-03-23T11:52:00;21.40;99.90
61004;DHT22;46889;37.310;13.582;2024-03-23T11:54:27;21.60;99.90
61004;DHT22;46889;37.310;13.582;2024-03-23T11:57:00;21.70;99.90
61004;DHT22;46889;37.310;13.582;2024-03-23T12:02:09;21.80;99.90
61004;DHT22;46889;37.310;13.582;2024-03-23T12:04:37;21.70;99.90
61004;DHT22;46889;37.310;13.582;2024-03-23T12:07:16;21.60;99.90
61004;DHT22;46889;37.310;13.582;2024-03-23T12:09:47;21.60;99.90
61004;DHT22;46889;37.310;13.582;2024-03-23T12:12:27;21.60;99.90
61004;DHT22;46889;37.310;13.582;2024-03-23T12:15:07;21.50;99.90
61004;DHT22;46889;37.310;13.582;2024-03-23T12:17:34;21.50;99.90
61004;DHT22;46889;37.310;13.582;2024-03-23T12:20:05;21.50;99.90
61004;DHT22;46889;37.310;13.582;2024-03-23T12:22:31;21.30;99.90
61004;DHT22;46889;37.310;13.582;2024-03-23T12:24:57;21.30;99.90
61004;DHT22;46889;37.310;13.582;2024-03-23T12:27:23;21.40;99.90
61004;DHT22;46889;37.310;13.582;2024-03-23T12:29:49;21.40;99.90
61004;DHT22;46889;37.310;13.582;2024-03-23T12:32:15;21.30;99.90
61004;DHT22;46889;37.310;13.582;2024-03-23T12:34:43;21.20;99.90
61004;DHT22;46889;37.310;13.582;2024-03-23T12:37:12;21.30;99.90
61004;DHT22;46889;37.310;13.582;2024-03-23T12:39:38;21.10;99.90
61004;DHT22;46889;37.310;13.582;2024-03-23T12:42:05;21.20;99.90
61004;DHT22;46889;37.310;13.582;2024-03-23T12:44:31;21.30;99.90
61004;DHT22;46889;37.310;13.582;2024-03-23T12:46:57;21.40;99.90
61004;DHT22;46889;37.310;13.582;2024-03-23T12:49:23;21.40;99.90
61004;DHT22;46889;37.310;13.582;2024-03-23T12:51:56;21.40;99.90
61004;DHT22;46889;37.310;13.582;2024-03-23T12:54:23;21.50;99.90
61004;DHT22;46889;37.310;13.582;2024-03-23T12:56:50;21.50;99.90
61004;DHT22;46889;37.310;13.582;2024-03-23T12:59:18;21.50;99.90
61004;DHT22;46889;37.310;13.582;2024-03-23T13:01:45;21.50;99.90
61004;DHT22;46889;37.310;13.582;2024-03-23T13:04:12;21.40;99.90
61004;DHT22;46889;37.310;13.582;2024-03-23T13:06:38;21.50;99.90
61004;DHT22;46889;37.310;13.582;2024-03-23T13:09:07;21.30;99.90
61004;DHT22;46889;37.310;13.582;2024-03-23T13:11:35;21.30;99.90
61004;DHT22;46889;37.310;13.582;2024-03-23T13:14:02;21.20;99.90
61004;DHT22;46889;37.310;13.582;2024-03-23T13:16:29;21.20;99.90
61004;DHT22;46889;37.310;13.582;2024-03-23T13:18:56;21.20;99.90
61004;DHT22;46889;37.310;13.582;2024-03-23T13:21:22;21.20;99.90
61004;DHT22;46889;37.310;13.582;2024-03-23T13:23:48;21.00;99.90
61004;DHT22;46889;37.310;13.582;2024-03-23T13:26:16;21.20;99.90
61004;DHT22;46889;37.310;13.582;2024-03-23T13:28:44;21.40;99.90
61004;DHT22;46889;37.310;13.582;2024-03-23T13:31:10;21.40;99.90
61004;DHT22;46889;37.310;13.582;2024-03-23T13:33:38;21.40;99.90
61004;DHT22;46889;37.310;13.582;2024-03-23T13:36:06;21.40;99.90
61004;DHT22;46889;37.310;13.582;2024-03-23T13:38:35;21.30;99.90
61004;DHT22;46889;37.310;13.582;2024-03-23T13:41:01;21.50;99.90
61004;DHT22;46889;37.310;13.582;2024-03-23T13:43:31;21.50;99.90
61004;DHT22;46889;37.310;13.582;2024-03-23T13:45:59;21.40;99.90
61004;DHT22;46889;37.310;13.582;2024-03-23T13:48:28;21.30;99.90
61004;DHT22;46889;37.310;13.582;2024-03-23T13:51:04;21.30;99.90
61004;DHT22;46889;37.310;13.582;2024-03-23T13:53:31;21.30;99.90
61004;DHT22;46889;37.310;13.582;2024-03-23T13:56:00;21.00;99.90
61004;DHT22;46889;37.310;13.582;2024-03-23T13:58:26;20.90;99.90
61004;DHT22;46889;37.310;13.582;2024-03-23T14:00:52;21.00;99.90
61004;DHT22;46889;37.310;13.582;2024-03-23T14:03:18;20.90;99.90
61004;DHT22;46889;37.310;13.582;2024-03-23T14:05:45;20.90;99.90
61004;DHT22;46889;37.310;13.582;2024-03-23T14:08:12;21.00;99.90
61004;DHT22;46889;37.310;13.582;2024-03-23T14:10:43;20.90;99.90
61004;DHT22;46889;37.310;13.582;2024-03-23T14:13:09;20.70;99.90
61004;DHT22;46889;37.310;13.582;2024-03-23T14:15:35;20.70;99.90
61004;DHT22;46889;37.310;13.582;2024-03-23T14:18:02;20.60;99.90
61004;DHT22;46889;37.310;13.582;2024-03-23T14:20:29;20.50;99.90
61004;DHT22;46889;37.310;13.582;2024-03-23T14:22:55;20.50;99.90
61004;DHT22;46889;37.310;13.582;2024-03-23T14:25:22;20.60;99.90
61004;DHT22;46889;37.310;13.582;2024-03-23T14:27:52;20.60;99.90
61004;DHT22;46889;37.310;13.582;2024-03-23T14:30:19;20.70;99.90
61004;DHT22;46889;37.310;13.582;2024-03-23T14:32:45;20.60;99.90
61004;DHT22;46889;37.310;13.582;2024-03-23T14:35:11;20.60;99.90
61004;DHT22;46889;37.310;13.582;2024-03-23T14:37:38;20.60;99.90
61004;DHT22;46889;37.310;13.582;2024-03-23T14:40:04;20.50;99.90
61004;DHT22;46889;37.310;13.582;2024-03-23T14:42:30;20.40;99.90
61004;DHT22;46889;37.310;13.582;2024-03-23T14:44:59;20.40;99.90
61004;DHT22;46889;37.310;13.582;2024-03-23T14:47:25;20.40;99.90
61004;DHT22;46889;37.310;13.582;2024-03-23T14:49:51;20.40;99.90
61004;DHT22;46889;37.310;13.582;2024-03-23T14:52:18;20.60;99.90
61004;DHT22;46889;37.310;13.582;2024-03-23T14:54:47;20.40;99.90
61004;DHT22;46889;37.310;13.582;2024-03-23T14:57:13;20.30;99.90
61004;DHT22;46889;37.310;13.582;2024-03-23T14:59:39;20.30;99.90
61004;DHT22;46889;37.310;13.582;2024-03-23T15:02:07;20.30;99.90
61004;DHT22;46889;37.310;13.582;2024-03-23T15:04:33;20.40;99.90
61004;DHT22;46889;37.310;13.582;2024-03-23T15:07:01;20.30;99.90
61004;DHT22;46889;37.310;13.582;2024-03-23T15:09:27;20.10;99.90
61004;DHT22;46889;37.310;13.582;2024-03-23T15:11:53;20.10;99.90
61004;DHT22;46889;37.310;13.582;2024-03-23T15:14:23;20.00;99.90
61004;DHT22;46889;37.310;13.582;2024-03-23T15:16:49;20.00;99.90
61004;DHT22;46889;37.310;13.582;2024-03-23T15:19:16;20.00;99.90
61004;DHT22;46889;37.310;13.582;2024-03-23T15:21:43;20.10;99.90
61004;DHT22;46889;37.310;13.582;2024-03-23T15:24:10;20.20;99.90
61004;DHT22;46889;37.310;13.582;2024-03-23T15:26:39;20.30;99.90
61004;DHT22;46889;37.310;13.582;2024-03-23T15:29:06;20.20;99.90
61004;DHT22;46889;37.310;13.582;2024-03-23T15:31:42;20.10;99.90
61004;DHT22;46889;37.310;13.582;2024-03-23T15:34:09;20.00;99.90
61004;DHT22;46889;37.310;13.582;2024-03-23T15:36:37;19.90;99.90
61004;DHT22;46889;37.310;13.582;2024-03-23T15:39:05;19.90;99.90
61004;DHT22;46889;37.310;13.582;2024-03-23T15:41:34;19.80;99.90
61004;DHT22;46889;37.310;13.582;2024-03-23T15:44:02;19.80;99.90
61004;DHT22;46889;37.310;13.582;2024-03-23T15:46:28;19.60;99.90
61004;DHT22;46889;37.310;13.582;2024-03-23T15:48:54;19.40;99.90
61004;DHT22;46889;37.310;13.582;2024-03-23T15:51:21;19.40;99.90
61004;DHT22;46889;37.310;13.582;2024-03-23T15:53:47;19.40;99.90
61004;DHT22;46889;37.310;13.582;2024-03-23T15:56:13;19.30;99.90
61004;DHT22;46889;37.310;13.582;2024-03-23T15:58:39;19.40;99.90
61004;DHT22;46889;37.310;13.582;2024-03-23T16:01:07;19.40;99.90
61004;DHT22;46889;37.310;13.582;2024-03-23T16:03:37;19.20;99.90
61004;DHT22;46889;37.310;13.582;2024-03-23T16:06:04;19.10;99.90
61004;DHT22;46889;37.310;13.582;2024-03-23T16:08:31;18.90;99.90
61004;DHT22;46889;37.310;13.582;2024-03-23T16:11:03;18.80;99.90
61004;DHT22;46889;37.310;13.582;2024-03-23T16:13:29;18.60;99.90
61004;DHT22;46889;37.310;13.582;2024-03-23T16:16:03;18.50;99.90
61004;DHT22;46889;37.310;13.582;2024-03-23T16:18:34;18.40;99.90
61004;DHT22;46889;37.310;13.582;2024-03-23T16:21:01;18.30;99.90
61004;DHT22;46889;37.310;13.582;2024-03-23T16:23:28;18.30;99.90
61004;DHT22;46889;37.310;13.582;2024-03-23T16:25:56;18.30;99.90
61004;DHT22;46889;37.310;13.582;2024-03-23T16:28:26;18.30;99.90
61004;DHT22;46889;37.310;13.582;2024-03-23T16:30:58;18.40;99.90
61004;DHT22;46889;37.310;13.582;2024-03-23T16:33:25;18.40;99.90